createdAt,value
2018-04-10T00:00:20.612Z,12.93
2018-04-10T00:02:48.851Z,15.70
2018-04-10T00:05:17.817Z,10.20
2018-04-10T00:07:47.596Z,14.70
2018-04-10T00:10:15.910Z,10.93
2018-04-10T00:12:44.081Z,8.27
2018-04-10T00:15:12.316Z,11.13
2018-04-10T00:17:41.252Z,9.67
2018-04-10T00:20:09.479Z,10.20
2018-04-10T00:22:37.684Z,12.60
2018-04-10T00:25:06.918Z,10.30
2018-04-10T00:27:35.120Z,11.20
2018-04-10T00:30:06.029Z,12.30
2018-04-10T00:32:34.329Z,12.57
2018-04-10T00:35:02.556Z,13.10
2018-04-10T00:37:31.528Z,10.27
2018-04-10T00:39:59.717Z,12.73
2018-04-10T00:42:27.939Z,10.43
2018-04-10T00:44:57.117Z,9.02
2018-04-10T00:47:26.162Z,11.30
2018-04-10T00:49:54.489Z,12.00
2018-04-10T00:52:24.872Z,9.70
2018-04-10T00:54:53.233Z,10.27
2018-04-10T00:57:21.420Z,13.15
2018-04-10T00:59:49.705Z,8.80
2018-04-10T01:02:19.951Z,10.67
2018-04-10T01:04:50.972Z,9.47
2018-04-10T01:07:20.887Z,8.30
2018-04-10T01:09:49.888Z,8.97
2018-04-10T01:12:19.679Z,13.00
2018-04-10T01:14:47.839Z,8.57
2018-04-10T01:17:16.069Z,10.90
2018-04-10T01:19:45.988Z,11.73
2018-04-10T01:22:14.925Z,9.80
2018-04-10T01:24:43.122Z,7.53
2018-04-10T01:27:11.325Z,9.10
2018-04-10T01:29:41.241Z,9.83
2018-04-10T01:32:09.415Z,9.07
2018-04-10T01:34:37.584Z,8.83
2018-04-10T01:37:05.761Z,9.03
2018-04-10T01:39:33.931Z,11.17
2018-04-10T01:42:03.844Z,9.37
2018-04-10T01:44:32.044Z,10.03
2018-04-10T01:49:37.288Z,10.80
2018-04-10T01:52:06.450Z,12.40
2018-04-10T01:54:34.682Z,7.43
2018-04-10T01:57:03.672Z,8.93
2018-04-10T01:59:32.573Z,10.80
2018-04-10T02:02:00.858Z,15.47
2018-04-10T02:04:31.674Z,10.23
2018-04-10T02:06:59.858Z,8.40
2018-04-10T02:09:45.529Z,6.50
2018-04-10T02:12:13.712Z,11.52
2018-04-10T02:14:41.890Z,14.67
2018-04-10T02:17:10.054Z,6.83
2018-04-10T02:19:38.311Z,10.50
2018-04-10T02:22:07.133Z,8.10
2018-04-10T02:24:38.229Z,8.03
2018-04-10T02:27:06.443Z,8.20
2018-04-10T02:29:34.608Z,12.20
2018-04-10T02:32:02.820Z,10.07
2018-04-10T02:34:30.995Z,9.93
2018-04-10T02:36:59.241Z,7.37
2018-04-10T02:39:29.043Z,12.03
2018-04-10T02:41:57.983Z,11.27
2018-04-10T02:44:26.179Z,8.83
2018-04-10T02:46:54.343Z,8.37
2018-04-10T02:49:22.525Z,7.47
2018-04-10T02:51:50.869Z,11.50
2018-04-10T02:54:19.053Z,7.73
2018-04-10T02:56:49.729Z,7.37
2018-04-10T02:59:17.982Z,9.77
2018-04-10T03:01:46.169Z,6.80
2018-04-10T03:04:14.359Z,11.90
2018-04-10T03:06:42.577Z,9.60
2018-04-10T03:09:10.733Z,7.97
2018-04-10T03:11:38.951Z,9.00
2018-04-10T03:14:07.167Z,6.87
2018-04-10T03:16:35.389Z,8.63
2018-04-10T03:19:03.556Z,6.00
2018-04-10T03:21:32.493Z,9.03
2018-04-10T03:24:02.269Z,12.13
2018-04-10T03:26:30.578Z,11.23
2018-04-10T03:28:58.815Z,11.97
2018-04-10T03:31:27.001Z,8.10
2018-04-10T03:33:57.583Z,7.30
2018-04-10T03:36:27.695Z,10.80
2018-04-10T03:38:56.075Z,10.23
2018-04-10T03:41:24.561Z,7.83
2018-04-10T03:43:55.785Z,6.97
2018-04-10T03:46:24.004Z,10.10
2018-04-10T03:48:52.237Z,7.30
2018-04-10T03:51:20.500Z,8.73
2018-04-10T03:53:48.726Z,9.03
2018-04-10T03:56:18.674Z,16.07
2018-04-10T03:58:46.994Z,9.27
2018-04-10T04:01:15.162Z,8.97
2018-04-10T04:03:43.369Z,8.40
2018-04-10T04:06:13.452Z,12.00
2018-04-10T04:08:41.813Z,12.80
2018-04-10T04:11:10.172Z,10.60
2018-04-10T04:13:38.430Z,8.40
2018-04-10T04:16:09.016Z,6.80
2018-04-10T04:18:49.165Z,8.40
2018-04-10T04:21:32.673Z,14.50
2018-04-10T04:24:01.716Z,7.10
2018-04-10T04:26:29.988Z,9.20
2018-04-10T04:28:58.197Z,14.10
2018-04-10T04:31:26.425Z,7.63
2018-04-10T04:33:54.626Z,8.40
2018-04-10T04:36:22.866Z,8.70
2018-04-10T04:38:52.799Z,10.50
2018-04-10T04:41:20.983Z,16.63
2018-04-10T04:43:49.216Z,10.30
2018-04-10T04:46:17.744Z,10.47
2018-04-10T04:48:46.026Z,9.70
2018-04-10T04:51:16.901Z,9.70
2018-04-10T04:53:46.931Z,9.90
2018-04-10T04:56:17.066Z,11.07
2018-04-10T04:58:46.821Z,13.27
2018-04-10T05:01:14.998Z,19.50
2018-04-10T05:03:43.260Z,10.97
2018-04-10T05:06:14.126Z,11.83
2018-04-10T05:08:42.335Z,11.60
2018-04-10T05:11:13.567Z,14.67
2018-04-10T05:13:43.933Z,9.97
2018-04-10T05:16:19.441Z,7.50
2018-04-10T05:18:50.273Z,9.60
2018-04-10T05:21:18.481Z,6.87
2018-04-10T05:23:47.853Z,9.60
2018-04-10T05:26:16.797Z,9.53
2018-04-10T05:28:45.007Z,10.00
2018-04-10T05:31:13.295Z,9.73
2018-04-10T05:33:41.545Z,15.23
2018-04-10T05:36:09.785Z,14.27
2018-04-10T05:38:40.823Z,10.37
2018-04-10T05:41:09.017Z,11.03
2018-04-10T05:43:37.947Z,7.40
2018-04-10T05:46:09.678Z,9.27
2018-04-10T05:48:37.904Z,11.57
2018-04-10T05:51:06.077Z,14.43
2018-04-10T05:53:34.263Z,11.20
2018-04-10T05:56:04.242Z,25.00
2018-04-10T05:58:34.035Z,30.33
2018-04-10T06:01:02.241Z,21.00
2018-04-10T06:03:30.413Z,20.03
2018-04-10T06:06:00.475Z,17.07
2018-04-10T06:08:28.843Z,12.00
2018-04-10T06:10:58.664Z,12.03
2018-04-10T06:13:26.847Z,12.20
2018-04-10T06:15:55.020Z,10.33
2018-04-10T06:18:25.896Z,8.60
2018-04-10T06:20:54.109Z,10.83
2018-04-10T06:23:22.297Z,10.70
2018-04-10T06:25:50.460Z,9.93
2018-04-10T06:28:20.374Z,11.03
2018-04-10T06:30:48.584Z,15.47
2018-04-10T06:33:16.796Z,9.73
2018-04-10T06:35:44.955Z,13.37
2018-04-10T06:38:13.153Z,11.10
2018-04-10T06:40:41.333Z,8.20
2018-04-10T06:43:11.279Z,7.80
2018-04-10T06:45:39.501Z,11.57
2018-04-10T06:48:07.735Z,12.70
2018-04-10T06:50:35.917Z,10.10
2018-04-10T06:53:04.119Z,10.20
2018-04-10T06:55:32.397Z,10.53
2018-04-10T06:58:00.597Z,13.43
2018-04-10T07:00:28.796Z,10.80
2018-04-10T07:02:56.997Z,10.33
2018-04-10T07:05:25.213Z,13.00
2018-04-10T07:07:54.333Z,14.03
2018-04-10T07:10:22.659Z,18.33
2018-04-10T07:12:51.673Z,12.80
2018-04-10T07:15:19.915Z,17.03
2018-04-10T07:17:50.017Z,14.87
2018-04-10T07:20:18.240Z,19.03
2018-04-10T07:22:47.428Z,19.63
2018-04-10T07:25:16.329Z,15.50
2018-04-10T07:27:46.721Z,14.87
2018-04-10T07:30:15.718Z,17.93
2018-04-10T07:32:44.005Z,14.77
2018-04-10T07:35:12.191Z,17.10
2018-04-10T07:37:40.383Z,20.47
2018-04-10T07:40:08.575Z,17.53
2018-04-10T07:42:36.768Z,21.50
2018-04-10T07:45:04.992Z,14.47
2018-04-10T07:47:33.188Z,20.13
2018-04-10T07:50:02.613Z,25.37
2018-04-10T07:52:32.366Z,18.20
2018-04-10T07:55:01.723Z,18.40
2018-04-10T07:57:30.058Z,19.00
2018-04-10T07:59:59.094Z,26.63
2018-04-10T08:02:27.356Z,22.70
2018-04-10T08:04:55.621Z,20.70
2018-04-10T08:07:25.490Z,22.83
2018-04-10T08:09:53.737Z,24.60
2018-04-10T08:12:23.594Z,25.37
2018-04-10T08:14:51.860Z,26.30
2018-04-10T08:17:21.667Z,21.23
2018-04-10T08:19:49.866Z,23.80
2018-04-10T08:22:18.150Z,28.10
2018-04-10T08:24:46.339Z,22.90
2018-04-10T08:27:16.306Z,24.13
2018-04-10T08:29:44.512Z,28.63
2018-04-10T08:32:12.754Z,29.10
2018-04-10T08:34:41.761Z,28.93
2018-04-10T08:37:12.594Z,21.33
2018-04-10T08:39:43.777Z,27.13
2018-04-10T08:42:14.205Z,27.13
2018-04-10T08:44:43.943Z,23.10
2018-04-10T08:47:13.213Z,30.33
2018-04-10T08:49:43.195Z,22.83
2018-04-10T08:52:11.450Z,25.47
2018-04-10T08:54:39.776Z,32.10
2018-04-10T08:57:07.966Z,25.07
2018-04-10T08:59:36.970Z,23.43
2018-04-10T09:02:05.143Z,21.90
2018-04-10T09:04:33.367Z,28.83
2018-04-10T09:07:01.559Z,28.70
2018-04-10T09:09:29.789Z,25.63
2018-04-10T09:11:59.935Z,21.60
2018-04-10T09:14:28.162Z,27.20
2018-04-10T09:16:56.361Z,21.87
2018-04-10T09:19:24.553Z,25.17
2018-04-10T09:21:52.865Z,23.83
2018-04-10T09:24:21.111Z,32.17
2018-04-10T09:26:49.321Z,29.53
2018-04-10T09:29:19.136Z,24.00
2018-04-10T09:31:47.456Z,28.67
2018-04-10T09:34:16.407Z,27.77
2018-04-10T09:36:44.675Z,21.57
2018-04-10T09:39:15.477Z,22.83
2018-04-10T09:41:43.783Z,24.27
2018-04-10T09:44:12.010Z,24.20
2018-04-10T09:46:43.536Z,23.60
2018-04-10T09:49:11.826Z,26.37
2018-04-10T09:51:41.823Z,28.80
2018-04-10T09:54:10.057Z,26.60
2018-04-10T09:56:38.259Z,29.37
2018-04-10T09:59:07.252Z,23.87
2018-04-10T10:01:36.738Z,33.87
2018-04-10T10:04:07.616Z,30.27
2018-04-10T10:06:40.606Z,28.20
2018-04-10T10:09:09.675Z,29.40
2018-04-10T10:11:37.906Z,31.63
2018-04-10T10:14:06.120Z,31.77
2018-04-10T10:16:34.504Z,27.80
2018-04-10T10:19:05.356Z,28.93
2018-04-10T10:21:33.646Z,31.47
2018-04-10T10:24:01.885Z,32.20
2018-04-10T10:26:31.894Z,27.37
2018-04-10T10:29:00.097Z,32.10
2018-04-10T10:31:28.348Z,25.40
2018-04-10T10:33:59.191Z,31.43
2018-04-10T10:36:28.453Z,27.23
2018-04-10T10:38:58.436Z,28.10
2018-04-10T10:41:28.315Z,27.07
2018-04-10T10:43:56.567Z,32.77
2018-04-10T10:46:24.857Z,36.53
2018-04-10T10:48:53.144Z,31.30
2018-04-10T10:51:21.370Z,29.97
2018-04-10T10:53:50.159Z,37.13
2018-04-10T10:56:18.523Z,27.83
2018-04-10T10:58:46.801Z,30.97
2018-04-10T11:01:17.797Z,26.97
2018-04-10T11:03:46.796Z,30.07
2018-04-10T11:06:15.022Z,30.40
2018-04-10T11:08:43.976Z,31.40
2018-04-10T11:11:12.172Z,36.83
2018-04-10T11:13:40.366Z,32.83
2018-04-10T11:16:08.667Z,30.27
2018-04-10T11:18:37.306Z,35.47
2018-04-10T11:21:06.412Z,34.60
2018-04-10T11:23:34.610Z,28.50
2018-04-10T11:26:02.835Z,34.17
2018-04-10T11:28:31.145Z,32.13
2018-04-10T11:30:59.627Z,34.40
2018-04-10T11:33:27.889Z,40.70
2018-04-10T11:35:56.087Z,26.90
2018-04-10T11:38:24.448Z,30.93
2018-04-10T11:40:52.778Z,36.90
2018-04-10T11:43:21.086Z,30.23
2018-04-10T11:45:49.329Z,32.47
2018-04-10T11:48:17.542Z,36.37
2018-04-10T11:50:45.799Z,35.13
2018-04-10T11:53:14.059Z,31.17
2018-04-10T11:55:42.289Z,34.70
2018-04-10T11:58:11.328Z,32.40
2018-04-10T12:00:40.030Z,32.90
2018-04-10T12:03:10.158Z,29.33
2018-04-10T12:05:38.463Z,36.63
2018-04-10T12:08:07.736Z,31.67
2018-04-10T12:10:37.769Z,39.30
2018-04-10T12:13:06.017Z,32.10
2018-04-10T12:15:34.284Z,33.97
2018-04-10T12:18:03.540Z,34.07
2018-04-10T12:20:31.755Z,29.20
2018-04-10T12:23:00.021Z,35.00
2018-04-10T12:25:28.231Z,33.13
2018-04-10T12:27:59.005Z,36.93
2018-04-10T12:30:27.197Z,29.60
2018-04-10T12:32:55.527Z,35.10
2018-04-10T12:35:24.494Z,30.93
2018-04-10T12:37:52.805Z,38.63
2018-04-10T12:40:21.040Z,32.83
2018-04-10T12:42:54.277Z,32.77
2018-04-10T12:45:23.457Z,29.70
2018-04-10T12:47:51.681Z,29.53
2018-04-10T12:50:19.903Z,34.07
2018-04-10T12:52:48.280Z,34.17
2018-04-10T12:55:16.565Z,29.30
2018-04-10T12:57:44.798Z,31.50
2018-04-10T13:00:13.109Z,34.20
2018-04-10T13:02:41.423Z,31.30
2018-04-10T13:05:09.794Z,34.20
2018-04-10T13:07:38.100Z,29.77
2018-04-10T13:10:06.309Z,31.27
2018-04-10T13:12:36.268Z,33.73
2018-04-10T13:15:04.552Z,31.90
2018-04-10T13:17:32.778Z,31.20
2018-04-10T13:20:00.966Z,33.90
2018-04-10T13:22:29.276Z,36.17
2018-04-10T13:24:57.629Z,37.40
2018-04-10T13:27:26.707Z,49.47
2018-04-10T13:29:58.737Z,30.10
2018-04-10T13:32:27.010Z,29.00
2018-04-10T13:34:55.232Z,31.63
2018-04-10T13:37:23.467Z,34.93
2018-04-10T13:39:51.775Z,36.03
2018-04-10T13:42:22.608Z,34.17
2018-04-10T13:44:50.856Z,29.03
2018-04-10T13:47:20.819Z,35.33
2018-04-10T13:52:23.527Z,31.07
2018-04-10T13:54:53.524Z,28.17
2018-04-10T13:57:24.347Z,34.03
2018-04-10T13:59:55.803Z,32.30
2018-04-10T14:02:24.044Z,26.67
2018-04-10T14:04:53.992Z,23.13
2018-04-10T14:07:22.244Z,25.53
2018-04-10T14:09:50.515Z,25.40
2018-04-10T14:12:20.416Z,21.03
2018-04-10T14:14:51.248Z,24.37
2018-04-10T14:17:20.239Z,23.83
2018-04-10T14:19:50.491Z,25.23
2018-04-10T14:22:20.417Z,17.23
2018-04-10T14:24:51.535Z,20.77
2018-04-10T14:27:21.603Z,18.80
2018-04-10T14:29:49.981Z,18.77
2018-04-10T14:32:18.327Z,19.17
2018-04-10T14:34:47.733Z,15.73
2018-04-10T14:37:15.930Z,14.13
2018-04-10T14:39:45.834Z,17.27
2018-04-10T14:42:14.054Z,11.50
2018-04-10T14:44:43.064Z,10.50
2018-04-10T14:47:13.884Z,17.20
2018-04-10T14:49:43.028Z,11.47
2018-04-10T14:52:11.319Z,10.93
2018-04-10T14:54:39.681Z,13.93
2018-04-10T14:57:07.953Z,13.43
2018-04-10T14:59:36.279Z,10.53
2018-04-10T15:02:06.265Z,9.30
2018-04-10T15:04:35.238Z,7.90
2018-04-10T15:07:03.469Z,10.67
2018-04-10T15:09:32.961Z,11.33
2018-04-10T15:12:01.250Z,8.20
2018-04-10T15:14:31.155Z,7.57
2018-04-10T15:16:59.381Z,10.53
2018-04-10T15:19:28.493Z,9.93
2018-04-10T15:21:56.806Z,10.67
2018-04-10T15:24:25.027Z,7.87
2018-04-10T15:26:53.252Z,6.30
2018-04-10T15:29:21.502Z,11.33
2018-04-10T15:31:51.483Z,5.90
2018-04-10T15:34:19.709Z,7.47
2018-04-10T15:36:49.948Z,6.17
2018-04-10T15:39:19.819Z,5.80
2018-04-10T15:41:49.789Z,7.90
2018-04-10T15:44:17.997Z,6.93
2018-04-10T15:46:46.253Z,8.70
2018-04-10T15:49:14.501Z,8.13
2018-04-10T15:51:44.360Z,5.82
2018-04-10T15:54:15.225Z,12.33
2018-04-10T15:56:49.013Z,4.90
2018-04-10T15:59:17.230Z,7.17
2018-04-10T16:01:47.046Z,6.47
2018-04-10T16:04:15.244Z,8.93
2018-04-10T16:06:43.595Z,6.77
2018-04-10T16:09:11.817Z,4.77
2018-04-10T16:11:40.092Z,7.57
2018-04-10T16:14:08.350Z,7.83
2018-04-10T16:16:36.537Z,5.03
2018-04-10T16:19:05.041Z,8.67
2018-04-10T16:21:33.280Z,6.50
2018-04-10T16:24:03.239Z,8.70
2018-04-10T16:26:32.173Z,8.90
2018-04-10T16:29:01.167Z,7.33
2018-04-10T16:31:30.587Z,6.50
2018-04-10T16:34:01.106Z,7.43
2018-04-10T16:36:31.068Z,8.53
2018-04-10T16:38:59.446Z,5.40
2018-04-10T16:41:27.921Z,9.13
2018-04-10T16:43:56.192Z,5.70
2018-04-10T16:46:24.448Z,7.77
2018-04-10T16:48:52.717Z,5.90
2018-04-10T16:51:20.920Z,5.47
2018-04-10T16:53:49.848Z,10.80
2018-04-10T16:56:18.082Z,7.80
2018-04-10T16:58:47.256Z,9.47
2018-04-10T17:01:15.588Z,9.20
2018-04-10T17:03:45.548Z,17.93
2018-04-10T17:06:13.885Z,12.77
2018-04-10T17:08:44.793Z,9.10
2018-04-10T17:11:14.950Z,10.67
2018-04-10T17:13:43.695Z,11.90
2018-04-10T17:18:52.081Z,14.20
2018-04-10T17:21:23.361Z,11.30
2018-04-10T17:23:55.841Z,6.50
2018-04-10T17:26:24.219Z,7.73
2018-04-10T17:28:55.352Z,8.77
2018-04-10T17:31:27.626Z,7.80
2018-04-10T17:33:59.287Z,8.07
2018-04-10T17:36:29.167Z,9.90
2018-04-10T17:38:57.445Z,10.73
2018-04-10T17:41:25.686Z,5.87
2018-04-10T17:43:54.023Z,10.87
2018-04-10T17:46:22.645Z,10.00
2018-04-10T17:48:52.042Z,6.40
2018-04-10T17:51:22.056Z,7.50
2018-04-10T17:53:50.292Z,11.47
2018-04-10T17:56:19.786Z,9.13
2018-04-10T17:58:48.268Z,11.90
2018-04-10T18:01:16.494Z,15.33
2018-04-10T18:03:44.729Z,7.83
2018-04-10T18:06:13.053Z,10.03
2018-04-10T18:08:41.293Z,9.50
2018-04-10T18:11:09.607Z,12.40
2018-04-10T18:13:39.684Z,20.90
2018-04-10T18:16:07.965Z,15.33
2018-04-10T18:18:37.925Z,36.17
2018-04-10T18:21:07.394Z,29.10
2018-04-10T18:23:35.798Z,28.70
2018-04-10T18:26:04.873Z,24.20
2018-04-10T18:28:33.252Z,23.90
2018-04-10T18:31:03.430Z,18.57
2018-04-10T18:33:32.493Z,16.93
2018-04-10T18:36:01.077Z,17.30
2018-04-10T18:38:29.661Z,14.03
2018-04-10T18:40:58.008Z,14.90
2018-04-10T18:43:27.161Z,17.00
2018-04-10T18:45:55.540Z,12.53
2018-04-10T18:48:23.816Z,9.30
2018-04-10T18:50:52.320Z,8.63
2018-04-10T18:53:20.763Z,16.07
2018-04-10T18:55:49.142Z,10.37
2018-04-10T18:58:17.429Z,12.93
2018-04-10T19:00:46.018Z,10.23
2018-04-10T19:03:14.239Z,15.80
2018-04-10T19:05:46.454Z,13.30
2018-04-10T19:08:14.881Z,20.40
2018-04-10T19:10:43.320Z,10.40
2018-04-10T19:13:11.619Z,9.00
2018-04-10T19:15:41.729Z,9.03
2018-04-10T19:20:44.409Z,14.93
2018-04-10T19:23:13.170Z,10.73
2018-04-10T19:25:42.426Z,11.20
2018-04-10T19:28:10.913Z,11.37
2018-04-10T19:30:39.394Z,11.90
2018-04-10T19:33:08.397Z,17.37
2018-04-10T19:35:39.290Z,9.70
2018-04-10T19:38:07.570Z,10.80
2018-04-10T19:40:37.547Z,12.33
2018-04-10T19:43:05.857Z,11.70
2018-04-10T19:45:36.623Z,13.77
2018-04-10T19:48:05.136Z,12.50
2018-04-10T19:50:33.516Z,10.00
2018-04-10T19:53:01.867Z,11.10
2018-04-10T19:55:30.333Z,13.93
2018-04-10T19:57:58.767Z,9.07
2018-04-10T20:00:27.066Z,12.30
2018-04-10T20:02:55.686Z,8.33
2018-04-10T20:05:24.783Z,11.03
2018-04-10T20:07:54.704Z,11.53
2018-04-10T20:10:22.935Z,10.70
2018-04-10T20:12:52.134Z,12.33
2018-04-10T20:15:20.373Z,9.67
2018-04-10T20:17:51.205Z,12.03
2018-04-10T20:20:19.547Z,10.33
2018-04-10T20:22:47.795Z,15.33
2018-04-10T20:25:16.070Z,7.53
2018-04-10T20:27:47.903Z,13.00
2018-04-10T20:30:16.101Z,15.70
2018-04-10T20:32:49.394Z,13.70
2018-04-10T20:35:17.836Z,10.80
2018-04-10T20:37:46.104Z,11.67
2018-04-10T20:40:14.478Z,11.80
2018-04-10T20:42:43.233Z,13.00
2018-04-10T20:45:14.660Z,13.50
2018-04-10T20:47:50.441Z,10.73
2018-04-10T20:50:18.919Z,14.60
2018-04-10T20:52:47.326Z,15.70
2018-04-10T20:55:15.849Z,16.57
2018-04-10T20:57:44.134Z,17.97
2018-04-10T21:00:14.114Z,17.43
2018-04-10T21:02:42.388Z,13.20
2018-04-10T21:05:13.269Z,15.47
2018-04-10T21:07:42.258Z,17.13
2018-04-10T21:10:11.566Z,19.10
2018-04-10T21:12:39.848Z,13.37
2018-04-10T21:15:08.112Z,13.80
2018-04-10T21:17:36.519Z,13.83
2018-04-10T21:20:04.795Z,9.97
2018-04-10T21:22:32.982Z,12.40
2018-04-10T21:25:01.973Z,10.53
2018-04-10T21:27:30.210Z,11.60
2018-04-10T21:29:58.442Z,11.10
2018-04-10T21:32:28.431Z,10.90
2018-04-10T21:34:56.613Z,7.73
2018-04-10T21:37:24.844Z,10.13
2018-04-10T21:39:53.052Z,8.10
2018-04-10T21:42:21.391Z,10.50
2018-04-10T21:44:49.583Z,8.27
2018-04-10T21:47:18.531Z,6.63
2018-04-10T21:49:46.735Z,6.30
2018-04-10T21:52:14.915Z,7.70
2018-04-10T21:54:43.885Z,8.03
2018-04-10T21:57:12.167Z,7.87
2018-04-10T21:59:40.366Z,5.20
2018-04-10T22:02:08.585Z,4.70
2018-04-10T22:04:36.817Z,5.13
2018-04-10T22:07:05.031Z,4.33
2018-04-10T22:09:33.174Z,5.47
2018-04-10T22:12:02.199Z,6.20
2018-04-10T22:14:30.351Z,4.73
2018-04-10T22:16:58.539Z,8.30
2018-04-10T22:19:39.233Z,4.43
2018-04-10T22:22:07.391Z,6.73
2018-04-10T22:24:35.535Z,4.70
2018-04-10T22:27:03.730Z,9.47
2018-04-10T22:29:31.872Z,8.63
2018-04-10T22:32:00.123Z,5.37
2018-04-10T22:34:28.272Z,4.40
2018-04-10T22:36:56.441Z,5.30
2018-04-10T22:39:24.654Z,6.90
2018-04-10T22:41:52.797Z,4.77
2018-04-10T22:44:20.955Z,6.57
2018-04-10T22:46:49.105Z,5.87
2018-04-10T22:49:17.295Z,4.90
2018-04-10T22:51:45.481Z,4.70
2018-04-10T22:54:13.631Z,5.73
2018-04-10T22:56:41.787Z,7.00
2018-04-10T22:59:09.938Z,6.30
2018-04-10T23:01:38.143Z,4.17
2018-04-10T23:04:07.005Z,5.17
2018-04-10T23:06:35.188Z,6.03
2018-04-10T23:09:03.343Z,5.23
2018-04-10T23:11:31.507Z,6.40
2018-04-10T23:13:59.693Z,5.40
2018-04-10T23:16:27.845Z,5.97
2018-04-10T23:18:56.009Z,4.50
2018-04-10T23:21:31.153Z,5.20
2018-04-10T23:23:59.313Z,11.27
2018-04-10T23:26:27.481Z,5.93
2018-04-10T23:28:55.664Z,7.17
2018-04-10T23:31:23.848Z,6.77
2018-04-10T23:33:52.002Z,4.67
2018-04-10T23:36:20.224Z,5.60
2018-04-10T23:38:48.448Z,4.87
2018-04-10T23:41:16.686Z,4.20
2018-04-10T23:43:45.029Z,4.33
2018-04-10T23:46:13.250Z,5.10
2018-04-10T23:48:41.401Z,3.90
2018-04-10T23:51:09.553Z,6.47
2018-04-10T23:53:38.483Z,5.33
2018-04-10T23:56:06.669Z,3.83
2018-04-10T23:58:34.829Z,5.47
